Etusivu
METAR-TAF:

METAR-TAF

Lentoasemat :

Melun, Ranska

Leveyspiiri: 48-37N, Pituuspiiri: 002-41E, korkeus merenpinnasta: 95 m

Tämänhetkinen sää

Tämä raportti tehtiin 21 minuuttia sitten, kello 15.30 UTC
Tuuli 7 kn pohjoisesta/koillisesta, vaihdellen pohjoisen ja idän välillä
Lämpötila 16°C
Kosteus 42%
Ilmanpaine 1030 hPa
Näkyvyys 10 km tai enemmän
ei pilviä alle 1500 m:ssä eikä cumulonimbus-pilviä

METAR: LFPM 211530Z AUTO 02007KT 350V080 CAVOK 16/03 Q1030

Aika: 16:51 (15:51 UTC)


TAF: puuttuu

Säähavainnot ja -ennusteet yli 4000 lentoasemalta (METAR- ja TAF-raportit).

Käytössä olevat sääasemat on merkitty karttaan keltaisilla ja punaisilla pisteillä.

Aseta hiiri pisteen päälle nähdäksesi sääaseman nimen.

Klikkaa sitten nähdäksesi säähavainnot ja -ennusteet.

Kartan vaihtaminen: klikkaa mustalla rastilla varustettuja vihreitä pisteitä, niin voit zoomata sisään; viivalla varustettua vihreää pistettä, niin voit zoomata ulos tai vihreitä nuolia, niin pääset viereisille kartoille.


METAR-TAF: